Hjaltland — VSTY8 — position and weather

sailwx.info

Track history (hours):
 
Tides and Currents Weather Stations Pressure Air Temp Water Temp Dewpoint Dewpoint Depression Visibility Wind Speed Wind Dir Waves Ship Positions

Hjaltland

Operator: NorthLink Orkey & Shetland Ferries Ltd

Last reported at 2020-Jan-24 00:31 UTC. Time now 2020-Jan-24 02:08 UTC.
Position N 59°01' W 002°54'.

Type: Ship. MMSI: 235450000.

Date/timePositionNaut miles runAvg speedWind from/ knotsBaromVisibWave heightAir tempDewpointWater temp
2020-Jan-24 00:31N 59°01' W 002°54'11 4.5
2020-Jan-23 22:00N 58°54' W 002°36'10719.4
2020-Jan-23 16:30N 57°09' W 002°05'0 0.0
2020-Jan-23 15:30N 57°09' W 002°05'0 0.0
2020-Jan-23 14:00N 57°09' W 002°05'0 0.0
2020-Jan-23 12:30N 57°09' W 002°05'0 0.0
2020-Jan-23 11:00N 57°09' W 002°05'0 0.0
2020-Jan-23 10:00N 57°09' W 002°05'7 1.8
2020-Jan-23 06:01N 57°13' W 001°56'1121.1
2020-Jan-23 05:30N 57°22' W 001°45'17 0.4
2020-Jan-21 12:59N 57°09' W 002°05'0 0.0
2020-Jan-21 11:29N 57°09' W 002°05'0 0.0
2020-Jan-21 10:29N 57°09' W 002°05'0 0.0
2020-Jan-21 07:29N 57°09' W 002°05'0 0.0
2020-Jan-21 06:59N 57°09' W 002°05'10517.6
2020-Jan-21 01:02N 58°52' W 002°34'122.8
2020-Jan-21 01:00N 58°53' W 002°34'12 0.5
2020-Jan-20 01:18N 59°04' W 002°26'413.2
2020-Jan-20 01:00N 59°01' W 002°31'14 9.4
2020-Jan-19 23:29N 58°60' W 002°58'8118.2
2020-Jan-19 19:00N 57°47' W 001°50'1121.8
2020-Jan-19 18:31N 57°37' W 001°44'3014.9
2020-Jan-19 16:29N 57°09' W 002°05'0 0.0
2020-Jan-19 12:58N 57°09' W 002°05'0 0.0
2020-Jan-19 10:58N 57°09' W 002°05'0 0.0
2020-Jan-19 10:28N 57°09' W 002°05'0 0.0
2020-Jan-19 09:58N 57°09' W 002°05'0 0.0
2020-Jan-19 08:31N 57°09' W 002°05'1 0.3
2020-Jan-19 06:30N 57°08' W 002°04'2613.2
2020-Jan-19 04:30N 57°30' W 001°36'1615.4
2020-Jan-19 03:30N 57°46' W 001°37'27 0.9
2020-Jan-17 20:00N 57°19' W 001°48'14 9.1
2020-Jan-17 18:28N 57°09' W 002°05'0 0.0
2020-Jan-17 17:28N 57°09' W 002°05'0 0.0
2020-Jan-17 16:28N 57°09' W 002°05'0 0.0
2020-Jan-17 14:58N 57°09' W 002°05'0 0.0
2020-Jan-17 11:28N 57°09' W 002°05'0 0.0
2020-Jan-17 08:29N 57°09' W 002°05'1 1.0
2020-Jan-17 07:01N 57°09' W 002°03'3718.5
2020-Jan-17 05:00N 57°43' W 001°37'9 0.3
2020-Jan-15 22:06N 57°52' W 001°36'3315.7
2020-Jan-15 20:01N 57°20' W 001°45'816.6
2020-Jan-15 19:31N 57°13' W 001°54'8 5.1
2020-Jan-15 17:59N 57°09' W 002°05'0 0.0
2020-Jan-15 13:59N 57°09' W 002°05'0 0.0
2020-Jan-15 12:29N 57°09' W 002°05'0 0.0
2020-Jan-15 11:29N 57°09' W 002°05'8 4.2
2020-Jan-15 09:30N 57°15' W 001°55'1919.4
2020-Jan-15 08:30N 57°31' W 001°36'  
Track history (hours):
 
Tides and Currents Weather Stations Pressure Air Temp Water Temp Dewpoint Dewpoint Depression Visibility Wind Speed Wind Dir Waves Ship Positions

Hjaltland

Operator: NorthLink Orkey & Shetland Ferries Ltd

Last reported at 2020-Jan-24 00:31 UTC. Time now 2020-Jan-24 02:08 UTC.
Position N 59°01' W 002°54'.

Type: Ship. MMSI: 235450000.

Date/timePositionNaut miles runAvg speedWind from/ knotsBaromVisibWave heightAir tempDewpointWater temp
2020-Jan-24 00:31N 59°01' W 002°54'11 4.5
2020-Jan-23 22:00N 58°54' W 002°36'10719.4
2020-Jan-23 16:30N 57°09' W 002°05'0 0.0
2020-Jan-23 15:30N 57°09' W 002°05'0 0.0
2020-Jan-23 14:00N 57°09' W 002°05'0 0.0
2020-Jan-23 12:30N 57°09' W 002°05'0 0.0
2020-Jan-23 11:00N 57°09' W 002°05'0 0.0
2020-Jan-23 10:00N 57°09' W 002°05'7 1.8
2020-Jan-23 06:01N 57°13' W 001°56'1121.1
2020-Jan-23 05:30N 57°22' W 001°45'17 0.4
2020-Jan-21 12:59N 57°09' W 002°05'0 0.0
2020-Jan-21 11:29N 57°09' W 002°05'0 0.0
2020-Jan-21 10:29N 57°09' W 002°05'0 0.0
2020-Jan-21 07:29N 57°09' W 002°05'0 0.0
2020-Jan-21 06:59N 57°09' W 002°05'10517.6
2020-Jan-21 01:02N 58°52' W 002°34'122.8
2020-Jan-21 01:00N 58°53' W 002°34'12 0.5
2020-Jan-20 01:18N 59°04' W 002°26'413.2
2020-Jan-20 01:00N 59°01' W 002°31'14 9.4
2020-Jan-19 23:29N 58°60' W 002°58'8118.2
2020-Jan-19 19:00N 57°47' W 001°50'1121.8
2020-Jan-19 18:31N 57°37' W 001°44'3014.9
2020-Jan-19 16:29N 57°09' W 002°05'0 0.0
2020-Jan-19 12:58N 57°09' W 002°05'0 0.0
2020-Jan-19 10:58N 57°09' W 002°05'0 0.0
2020-Jan-19 10:28N 57°09' W 002°05'0 0.0
2020-Jan-19 09:58N 57°09' W 002°05'0 0.0
2020-Jan-19 08:31N 57°09' W 002°05'1 0.3
2020-Jan-19 06:30N 57°08' W 002°04'2613.2
2020-Jan-19 04:30N 57°30' W 001°36'1615.4
2020-Jan-19 03:30N 57°46' W 001°37'27 0.9
2020-Jan-17 20:00N 57°19' W 001°48'14 9.1
2020-Jan-17 18:28N 57°09' W 002°05'0 0.0
2020-Jan-17 17:28N 57°09' W 002°05'0 0.0
2020-Jan-17 16:28N 57°09' W 002°05'0 0.0
2020-Jan-17 14:58N 57°09' W 002°05'0 0.0
2020-Jan-17 11:28N 57°09' W 002°05'0 0.0
2020-Jan-17 08:29N 57°09' W 002°05'1 1.0
2020-Jan-17 07:01N 57°09' W 002°03'3718.5
2020-Jan-17 05:00N 57°43' W 001°37'9 0.3
2020-Jan-15 22:06N 57°52' W 001°36'3315.7
2020-Jan-15 20:01N 57°20' W 001°45'816.6
2020-Jan-15 19:31N 57°13' W 001°54'8 5.1
2020-Jan-15 17:59N 57°09' W 002°05'0 0.0
2020-Jan-15 13:59N 57°09' W 002°05'0 0.0
2020-Jan-15 12:29N 57°09' W 002°05'0 0.0
2020-Jan-15 11:29N 57°09' W 002°05'8 4.2
2020-Jan-15 09:30N 57°15' W 001°55'1919.4
2020-Jan-15 08:30N 57°31' W 001°36'  

Dump ship's entire track history